sensor_id;sensor_type;location;lat;lon;timestamp;P1;durP1;ratioP1;P2;durP2;ratioP2
438;SDS011;206;48.782;9.252;2023-01-30T00:01:12;18.63;;;12.80;;
438;SDS011;206;48.782;9.252;2023-01-30T00:03:41;15.13;;;12.90;;
438;SDS011;206;48.782;9.252;2023-01-30T00:06:07;17.90;;;11.87;;
438;SDS011;206;48.782;9.252;2023-01-30T00:08:33;13.20;;;11.07;;
438;SDS011;206;48.782;9.252;2023-01-30T00:11:02;16.37;;;12.07;;
438;SDS011;206;48.782;9.252;2023-01-30T00:13:34;15.67;;;12.50;;
438;SDS011;206;48.782;9.252;2023-01-30T00:16:00;19.03;;;10.90;;
438;SDS011;206;48.782;9.252;2023-01-30T00:18:26;15.45;;;11.38;;
438;SDS011;206;48.782;9.252;2023-01-30T00:20:59;14.50;;;11.23;;
438;SDS011;206;48.782;9.252;2023-01-30T00:23:26;17.75;;;12.43;;
438;SDS011;206;48.782;9.252;2023-01-30T00:25:53;17.98;;;13.77;;
438;SDS011;206;48.782;9.252;2023-01-30T00:28:19;19.17;;;13.33;;
438;SDS011;206;48.782;9.252;2023-01-30T00:30:47;26.90;;;12.40;;
438;SDS011;206;48.782;9.252;2023-01-30T00:33:14;21.80;;;13.57;;
438;SDS011;206;48.782;9.252;2023-01-30T00:35:44;15.13;;;12.07;;
438;SDS011;206;48.782;9.252;2023-01-30T00:38:10;16.55;;;12.20;;
438;SDS011;206;48.782;9.252;2023-01-30T00:40:35;15.20;;;12.13;;
438;SDS011;206;48.782;9.252;2023-01-30T00:43:01;17.30;;;11.97;;
438;SDS011;206;48.782;9.252;2023-01-30T00:45:45;16.35;;;11.82;;
438;SDS011;206;48.782;9.252;2023-01-30T00:48:30;19.33;;;12.48;;
438;SDS011;206;48.782;9.252;2023-01-30T00:50:56;18.88;;;11.80;;
438;SDS011;206;48.782;9.252;2023-01-30T00:53:21;16.17;;;12.70;;
438;SDS011;206;48.782;9.252;2023-01-30T00:55:49;16.43;;;12.53;;
438;SDS011;206;48.782;9.252;2023-01-30T00:58:17;19.88;;;11.60;;
438;SDS011;206;48.782;9.252;2023-01-30T01:00:43;16.00;;;11.10;;
438;SDS011;206;48.782;9.252;2023-01-30T01:03:09;18.60;;;13.23;;
438;SDS011;206;48.782;9.252;2023-01-30T01:05:34;14.73;;;11.80;;
438;SDS011;206;48.782;9.252;2023-01-30T01:08:00;20.03;;;13.30;;
438;SDS011;206;48.782;9.252;2023-01-30T01:10:26;17.60;;;11.68;;
438;SDS011;206;48.782;9.252;2023-01-30T01:12:51;16.37;;;11.30;;
438;SDS011;206;48.782;9.252;2023-01-30T01:15:17;15.20;;;11.70;;
438;SDS011;206;48.782;9.252;2023-01-30T01:17:43;15.23;;;12.25;;
438;SDS011;206;48.782;9.252;2023-01-30T01:20:09;19.80;;;12.10;;
438;SDS011;206;48.782;9.252;2023-01-30T01:22:36;14.63;;;11.27;;
438;SDS011;206;48.782;9.252;2023-01-30T01:25:01;17.53;;;11.77;;
438;SDS011;206;48.782;9.252;2023-01-30T01:27:27;15.50;;;10.47;;
438;SDS011;206;48.782;9.252;2023-01-30T01:29:53;16.80;;;11.75;;
438;SDS011;206;48.782;9.252;2023-01-30T01:32:19;18.63;;;11.60;;
438;SDS011;206;48.782;9.252;2023-01-30T01:34:45;16.10;;;12.23;;
438;SDS011;206;48.782;9.252;2023-01-30T01:37:11;16.63;;;11.87;;
438;SDS011;206;48.782;9.252;2023-01-30T01:39:37;16.43;;;11.53;;
438;SDS011;206;48.782;9.252;2023-01-30T01:42:21;16.40;;;11.90;;
438;SDS011;206;48.782;9.252;2023-01-30T01:44:56;15.93;;;11.32;;
438;SDS011;206;48.782;9.252;2023-01-30T01:47:29;15.57;;;12.20;;
438;SDS011;206;48.782;9.252;2023-01-30T01:49:58;13.88;;;10.75;;
438;SDS011;206;48.782;9.252;2023-01-30T01:52:23;20.07;;;11.80;;
438;SDS011;206;48.782;9.252;2023-01-30T01:54:57;18.43;;;12.30;;
438;SDS011;206;48.782;9.252;2023-01-30T01:57:31;19.55;;;12.68;;
438;SDS011;206;48.782;9.252;2023-01-30T02:00:02;19.23;;;14.07;;
438;SDS011;206;48.782;9.252;2023-01-30T02:02:35;18.83;;;11.48;;
438;SDS011;206;48.782;9.252;2023-01-30T02:05:02;14.90;;;10.97;;
438;SDS011;206;48.782;9.252;2023-01-30T02:10:10;12.25;;;10.45;;
438;SDS011;206;48.782;9.252;2023-01-30T02:12:41;17.35;;;12.68;;
438;SDS011;206;48.782;9.252;2023-01-30T02:15:07;16.05;;;11.65;;
438;SDS011;206;48.782;9.252;2023-01-30T02:17:33;13.30;;;10.38;;
438;SDS011;206;48.782;9.252;2023-01-30T02:20:04;14.60;;;10.73;;
438;SDS011;206;48.782;9.252;2023-01-30T02:34:05;15.55;;;11.98;;
438;SDS011;206;48.782;9.252;2023-01-30T02:45:07;14.75;;;11.43;;
438;SDS011;206;48.782;9.252;2023-01-30T02:47:44;18.25;;;11.68;;
438;SDS011;206;48.782;9.252;2023-01-30T02:50:28;15.48;;;10.93;;
438;SDS011;206;48.782;9.252;2023-01-30T02:53:14;17.83;;;12.18;;
438;SDS011;206;48.782;9.252;2023-01-30T02:55:40;17.63;;;11.10;;
438;SDS011;206;48.782;9.252;2023-01-30T02:58:06;12.77;;;11.80;;
438;SDS011;206;48.782;9.252;2023-01-30T03:11:06;17.55;;;11.88;;
438;SDS011;206;48.782;9.252;2023-01-30T03:13:37;19.88;;;13.05;;
438;SDS011;206;48.782;9.252;2023-01-30T03:16:32;18.45;;;12.60;;
438;SDS011;206;48.782;9.252;2023-01-30T03:19:02;17.85;;;12.80;;
438;SDS011;206;48.782;9.252;2023-01-30T03:21:31;21.38;;;11.98;;
438;SDS011;206;48.782;9.252;2023-01-30T03:23:57;18.88;;;11.95;;
438;SDS011;206;48.782;9.252;2023-01-30T03:26:23;15.13;;;11.00;;
438;SDS011;206;48.782;9.252;2023-01-30T03:28:54;20.45;;;12.07;;
438;SDS011;206;48.782;9.252;2023-01-30T03:31:20;13.10;;;10.10;;
438;SDS011;206;48.782;9.252;2023-01-30T03:33:46;15.50;;;11.20;;
438;SDS011;206;48.782;9.252;2023-01-30T03:36:11;12.87;;;10.30;;
438;SDS011;206;48.782;9.252;2023-01-30T03:38:37;19.27;;;10.85;;
438;SDS011;206;48.782;9.252;2023-01-30T03:41:03;14.67;;;10.07;;
438;SDS011;206;48.782;9.252;2023-01-30T03:43:29;15.05;;;10.75;;
438;SDS011;206;48.782;9.252;2023-01-30T03:45:55;16.40;;;10.67;;
438;SDS011;206;48.782;9.252;2023-01-30T03:48:21;13.30;;;10.00;;
438;SDS011;206;48.782;9.252;2023-01-30T03:50:46;12.00;;;9.50;;
438;SDS011;206;48.782;9.252;2023-01-30T03:53:12;11.07;;;8.80;;
438;SDS011;206;48.782;9.252;2023-01-30T03:55:38;13.80;;;10.07;;
438;SDS011;206;48.782;9.252;2023-01-30T03:58:09;14.50;;;10.75;;
438;SDS011;206;48.782;9.252;2023-01-30T04:00:35;15.25;;;11.13;;
438;SDS011;206;48.782;9.252;2023-01-30T04:03:01;13.37;;;10.57;;
438;SDS011;206;48.782;9.252;2023-01-30T04:05:26;14.97;;;8.70;;
438;SDS011;206;48.782;9.252;2023-01-30T04:07:54;14.70;;;8.30;;
438;SDS011;206;48.782;9.252;2023-01-30T04:10:21;17.33;;;10.03;;
438;SDS011;206;48.782;9.252;2023-01-30T04:12:47;13.67;;;9.37;;
438;SDS011;206;48.782;9.252;2023-01-30T04:15:13;13.60;;;10.10;;
438;SDS011;206;48.782;9.252;2023-01-30T04:17:38;11.73;;;9.37;;
438;SDS011;206;48.782;9.252;2023-01-30T04:20:04;13.43;;;9.70;;
438;SDS011;206;48.782;9.252;2023-01-30T04:22:30;11.87;;;9.57;;
438;SDS011;206;48.782;9.252;2023-01-30T04:24:58;13.83;;;8.97;;
438;SDS011;206;48.782;9.252;2023-01-30T04:27:24;13.13;;;9.37;;
438;SDS011;206;48.782;9.252;2023-01-30T04:29:49;11.67;;;8.90;;
438;SDS011;206;48.782;9.252;2023-01-30T04:32:15;12.27;;;9.37;;
438;SDS011;206;48.782;9.252;2023-01-30T04:34:41;10.63;;;8.90;;
438;SDS011;206;48.782;9.252;2023-01-30T04:37:09;13.20;;;9.60;;
438;SDS011;206;48.782;9.252;2023-01-30T04:39:35;14.27;;;9.85;;
438;SDS011;206;48.782;9.252;2023-01-30T04:42:02;10.73;;;8.77;;
438;SDS011;206;48.782;9.252;2023-01-30T04:44:28;10.10;;;7.30;;
438;SDS011;206;48.782;9.252;2023-01-30T04:46:53;10.00;;;7.90;;
438;SDS011;206;48.782;9.252;2023-01-30T04:49:19;10.67;;;8.97;;
438;SDS011;206;48.782;9.252;2023-01-30T04:51:45;11.73;;;8.30;;
438;SDS011;206;48.782;9.252;2023-01-30T04:54:11;11.57;;;8.70;;
438;SDS011;206;48.782;9.252;2023-01-30T04:56:36;11.33;;;7.93;;
438;SDS011;206;48.782;9.252;2023-01-30T04:59:02;9.80;;;7.60;;
438;SDS011;206;48.782;9.252;2023-01-30T05:01:34;9.27;;;8.63;;
438;SDS011;206;48.782;9.252;2023-01-30T05:04:02;9.57;;;6.93;;
438;SDS011;206;48.782;9.252;2023-01-30T05:06:29;10.30;;;7.90;;
438;SDS011;206;48.782;9.252;2023-01-30T05:08:55;8.60;;;6.80;;
438;SDS011;206;48.782;9.252;2023-01-30T05:11:22;10.40;;;8.00;;
438;SDS011;206;48.782;9.252;2023-01-30T05:13:49;9.90;;;8.37;;
438;SDS011;206;48.782;9.252;2023-01-30T05:16:16;12.00;;;8.30;;
438;SDS011;206;48.782;9.252;2023-01-30T05:18:43;14.27;;;9.20;;
438;SDS011;206;48.782;9.252;2023-01-30T05:21:13;8.83;;;6.93;;
438;SDS011;206;48.782;9.252;2023-01-30T05:23:40;11.20;;;7.10;;
438;SDS011;206;48.782;9.252;2023-01-30T05:26:06;10.23;;;7.87;;
438;SDS011;206;48.782;9.252;2023-01-30T05:28:32;8.40;;;7.27;;
438;SDS011;206;48.782;9.252;2023-01-30T05:31:02;10.30;;;7.50;;
438;SDS011;206;48.782;9.252;2023-01-30T05:33:29;10.25;;;7.18;;
438;SDS011;206;48.782;9.252;2023-01-30T05:35:54;11.37;;;7.90;;
438;SDS011;206;48.782;9.252;2023-01-30T05:38:21;11.97;;;7.97;;
438;SDS011;206;48.782;9.252;2023-01-30T05:40:56;8.53;;;7.20;;
438;SDS011;206;48.782;9.252;2023-01-30T05:43:29;10.33;;;8.23;;
438;SDS011;206;48.782;9.252;2023-01-30T05:45:56;10.15;;;8.32;;
438;SDS011;206;48.782;9.252;2023-01-30T05:48:23;10.60;;;8.25;;
438;SDS011;206;48.782;9.252;2023-01-30T05:50:52;10.77;;;7.53;;
438;SDS011;206;48.782;9.252;2023-01-30T05:53:19;11.87;;;8.03;;
438;SDS011;206;48.782;9.252;2023-01-30T05:55:53;8.80;;;6.87;;
438;SDS011;206;48.782;9.252;2023-01-30T05:58:26;8.10;;;7.13;;
438;SDS011;206;48.782;9.252;2023-01-30T06:00:52;8.37;;;6.10;;
438;SDS011;206;48.782;9.252;2023-01-30T06:03:18;9.07;;;6.80;;
438;SDS011;206;48.782;9.252;2023-01-30T06:05:44;11.13;;;7.77;;
438;SDS011;206;48.782;9.252;2023-01-30T06:08:10;12.63;;;7.87;;
438;SDS011;206;48.782;9.252;2023-01-30T06:10:35;10.53;;;7.53;;
438;SDS011;206;48.782;9.252;2023-01-30T06:13:01;10.00;;;7.50;;
438;SDS011;206;48.782;9.252;2023-01-30T06:15:27;11.73;;;7.67;;
438;SDS011;206;48.782;9.252;2023-01-30T06:17:53;11.53;;;8.20;;
438;SDS011;206;48.782;9.252;2023-01-30T06:20:19;10.60;;;7.73;;
438;SDS011;206;48.782;9.252;2023-01-30T06:22:44;10.50;;;6.77;;
438;SDS011;206;48.782;9.252;2023-01-30T06:25:10;7.30;;;6.10;;
438;SDS011;206;48.782;9.252;2023-01-30T06:27:36;10.17;;;7.27;;
438;SDS011;206;48.782;9.252;2023-01-30T06:30:01;8.83;;;7.57;;
438;SDS011;206;48.782;9.252;2023-01-30T06:32:27;9.70;;;7.47;;
438;SDS011;206;48.782;9.252;2023-01-30T06:34:53;13.33;;;8.87;;
438;SDS011;206;48.782;9.252;2023-01-30T06:37:18;9.17;;;7.63;;
438;SDS011;206;48.782;9.252;2023-01-30T06:39:44;9.83;;;7.63;;
438;SDS011;206;48.782;9.252;2023-01-30T06:42:09;9.17;;;6.80;;
438;SDS011;206;48.782;9.252;2023-01-30T06:44:35;9.80;;;7.30;;
438;SDS011;206;48.782;9.252;2023-01-30T06:47:00;13.87;;;8.13;;
438;SDS011;206;48.782;9.252;2023-01-30T06:49:26;7.43;;;6.53;;
438;SDS011;206;48.782;9.252;2023-01-30T06:51:52;9.13;;;7.07;;
438;SDS011;206;48.782;9.252;2023-01-30T06:54:17;11.07;;;7.60;;
438;SDS011;206;48.782;9.252;2023-01-30T06:56:43;9.53;;;7.20;;
438;SDS011;206;48.782;9.252;2023-01-30T06:59:08;13.07;;;8.20;;
438;SDS011;206;48.782;9.252;2023-01-30T07:01:34;11.67;;;8.67;;
438;SDS011;206;48.782;9.252;2023-01-30T07:04:00;10.20;;;6.87;;
438;SDS011;206;48.782;9.252;2023-01-30T07:06:26;10.27;;;7.37;;
438;SDS011;206;48.782;9.252;2023-01-30T07:08:51;20.30;;;8.10;;
438;SDS011;206;48.782;9.252;2023-01-30T07:11:17;9.80;;;7.80;;
438;SDS011;206;48.782;9.252;2023-01-30T07:13:43;9.63;;;7.70;;
438;SDS011;206;48.782;9.252;2023-01-30T07:16:09;9.03;;;7.00;;
438;SDS011;206;48.782;9.252;2023-01-30T07:18:34;8.70;;;6.47;;
438;SDS011;206;48.782;9.252;2023-01-30T07:21:00;13.10;;;6.97;;
438;SDS011;206;48.782;9.252;2023-01-30T07:23:26;14.00;;;6.87;;
438;SDS011;206;48.782;9.252;2023-01-30T07:25:51;9.10;;;6.70;;
438;SDS011;206;48.782;9.252;2023-01-30T07:28:17;10.73;;;9.20;;
438;SDS011;206;48.782;9.252;2023-01-30T07:30:42;9.70;;;6.77;;
438;SDS011;206;48.782;9.252;2023-01-30T07:33:08;8.10;;;7.37;;
438;SDS011;206;48.782;9.252;2023-01-30T07:35:34;10.17;;;6.93;;
438;SDS011;206;48.782;9.252;2023-01-30T07:38:01;11.87;;;6.73;;
438;SDS011;206;48.782;9.252;2023-01-30T07:40:27;9.80;;;7.17;;
438;SDS011;206;48.782;9.252;2023-01-30T07:42:59;12.90;;;6.67;;
438;SDS011;206;48.782;9.252;2023-01-30T07:45:36;9.03;;;7.20;;
438;SDS011;206;48.782;9.252;2023-01-30T07:48:13;8.90;;;6.83;;
438;SDS011;206;48.782;9.252;2023-01-30T07:50:40;11.50;;;8.20;;
438;SDS011;206;48.782;9.252;2023-01-30T07:53:07;12.23;;;7.83;;
438;SDS011;206;48.782;9.252;2023-01-30T07:55:35;15.43;;;7.83;;
438;SDS011;206;48.782;9.252;2023-01-30T07:58:01;8.80;;;7.03;;
438;SDS011;206;48.782;9.252;2023-01-30T08:00:28;9.70;;;6.50;;
438;SDS011;206;48.782;9.252;2023-01-30T08:02:53;8.90;;;7.90;;
438;SDS011;206;48.782;9.252;2023-01-30T08:05:19;11.03;;;7.37;;
438;SDS011;206;48.782;9.252;2023-01-30T08:07:45;10.90;;;7.50;;
438;SDS011;206;48.782;9.252;2023-01-30T08:10:13;8.50;;;6.20;;
438;SDS011;206;48.782;9.252;2023-01-30T08:12:40;8.20;;;5.70;;
438;SDS011;206;48.782;9.252;2023-01-30T08:15:06;11.00;;;7.00;;
438;SDS011;206;48.782;9.252;2023-01-30T08:17:35;10.40;;;7.07;;
438;SDS011;206;48.782;9.252;2023-01-30T08:20:01;9.07;;;6.73;;
438;SDS011;206;48.782;9.252;2023-01-30T08:22:27;11.67;;;7.27;;
438;SDS011;206;48.782;9.252;2023-01-30T08:24:53;12.10;;;6.27;;
438;SDS011;206;48.782;9.252;2023-01-30T08:27:18;11.73;;;7.77;;
438;SDS011;206;48.782;9.252;2023-01-30T08:29:44;7.10;;;5.80;;
438;SDS011;206;48.782;9.252;2023-01-30T08:32:10;6.33;;;5.10;;
438;SDS011;206;48.782;9.252;2023-01-30T08:34:35;6.23;;;5.60;;
438;SDS011;206;48.782;9.252;2023-01-30T08:37:01;7.07;;;5.47;;
438;SDS011;206;48.782;9.252;2023-01-30T08:39:27;14.60;;;7.67;;
438;SDS011;206;48.782;9.252;2023-01-30T08:41:52;7.23;;;6.27;;
438;SDS011;206;48.782;9.252;2023-01-30T08:44:18;8.80;;;5.97;;
438;SDS011;206;48.782;9.252;2023-01-30T08:46:43;7.07;;;5.80;;
438;SDS011;206;48.782;9.252;2023-01-30T08:49:09;8.13;;;5.97;;
438;SDS011;206;48.782;9.252;2023-01-30T08:51:35;7.93;;;5.93;;
438;SDS011;206;48.782;9.252;2023-01-30T08:54:01;6.73;;;5.80;;
438;SDS011;206;48.782;9.252;2023-01-30T08:56:27;8.87;;;6.87;;
438;SDS011;206;48.782;9.252;2023-01-30T08:58:52;7.63;;;6.30;;
438;SDS011;206;48.782;9.252;2023-01-30T09:01:18;9.13;;;6.27;;
438;SDS011;206;48.782;9.252;2023-01-30T09:03:44;7.87;;;5.80;;
438;SDS011;206;48.782;9.252;2023-01-30T09:06:09;6.80;;;5.00;;
438;SDS011;206;48.782;9.252;2023-01-30T09:08:35;8.40;;;5.70;;
438;SDS011;206;48.782;9.252;2023-01-30T09:11:02;7.30;;;5.80;;
438;SDS011;206;48.782;9.252;2023-01-30T09:13:29;6.50;;;5.37;;
438;SDS011;206;48.782;9.252;2023-01-30T09:15:56;8.93;;;6.20;;
438;SDS011;206;48.782;9.252;2023-01-30T09:18:23;6.63;;;5.30;;
438;SDS011;206;48.782;9.252;2023-01-30T09:20:49;6.63;;;5.20;;
438;SDS011;206;48.782;9.252;2023-01-30T09:23:16;7.43;;;5.50;;
438;SDS011;206;48.782;9.252;2023-01-30T09:25:45;6.33;;;5.77;;
438;SDS011;206;48.782;9.252;2023-01-30T09:28:11;7.93;;;4.60;;
438;SDS011;206;48.782;9.252;2023-01-30T09:30:40;5.60;;;5.23;;
438;SDS011;206;48.782;9.252;2023-01-30T09:33:06;6.80;;;5.57;;
438;SDS011;206;48.782;9.252;2023-01-30T09:35:32;6.67;;;5.37;;
438;SDS011;206;48.782;9.252;2023-01-30T09:37:57;5.73;;;4.60;;
438;SDS011;206;48.782;9.252;2023-01-30T09:40:25;8.47;;;5.40;;
438;SDS011;206;48.782;9.252;2023-01-30T09:48:45;8.57;;;6.43;;
438;SDS011;206;48.782;9.252;2023-01-30T09:51:26;10.77;;;7.27;;
438;SDS011;206;48.782;9.252;2023-01-30T09:56:58;5.63;;;5.27;;
438;SDS011;206;48.782;9.252;2023-01-30T09:59:35;9.93;;;6.00;;
438;SDS011;206;48.782;9.252;2023-01-30T10:02:39;5.30;;;5.00;;
438;SDS011;206;48.782;9.252;2023-01-30T10:05:14;6.63;;;5.10;;
438;SDS011;206;48.782;9.252;2023-01-30T10:10:40;12.67;;;6.00;;
438;SDS011;206;48.782;9.252;2023-01-30T10:13:25;10.33;;;7.67;;
438;SDS011;206;48.782;9.252;2023-01-30T10:27:01;6.27;;;4.90;;
438;SDS011;206;48.782;9.252;2023-01-30T10:29:46;4.20;;;3.40;;
438;SDS011;206;48.782;9.252;2023-01-30T10:32:21;4.83;;;3.47;;
438;SDS011;206;48.782;9.252;2023-01-30T10:35:15;7.13;;;3.33;;
438;SDS011;206;48.782;9.252;2023-01-30T10:43:53;9.10;;;4.20;;
438;SDS011;206;48.782;9.252;2023-01-30T10:46:33;11.57;;;4.03;;
438;SDS011;206;48.782;9.252;2023-01-30T10:49:04;30.03;;;6.00;;
438;SDS011;206;48.782;9.252;2023-01-30T10:51:43;6.80;;;3.77;;
438;SDS011;206;48.782;9.252;2023-01-30T10:57:01;9.20;;;3.50;;
438;SDS011;206;48.782;9.252;2023-01-30T10:59:48;17.53;;;4.30;;
438;SDS011;206;48.782;9.252;2023-01-30T11:04:56;9.70;;;4.43;;
438;SDS011;206;48.782;9.252;2023-01-30T11:07:23;4.00;;;2.50;;
438;SDS011;206;48.782;9.252;2023-01-30T11:09:53;14.75;;;3.28;;
438;SDS011;206;48.782;9.252;2023-01-30T11:12:22;42.93;;;5.60;;
438;SDS011;206;48.782;9.252;2023-01-30T11:17:20;10.53;;;3.70;;
438;SDS011;206;48.782;9.252;2023-01-30T11:19:54;43.27;;;5.87;;
438;SDS011;206;48.782;9.252;2023-01-30T11:22:22;5.07;;;3.43;;
438;SDS011;206;48.782;9.252;2023-01-30T11:24:50;8.63;;;4.07;;
438;SDS011;206;48.782;9.252;2023-01-30T11:27:32;6.63;;;2.50;;
438;SDS011;206;48.782;9.252;2023-01-30T11:30:32;6.35;;;3.00;;
438;SDS011;206;48.782;9.252;2023-01-30T11:32:53;76.50;;;12.40;;
438;SDS011;206;48.782;9.252;2023-01-30T11:35:43;12.40;;;10.00;;
438;SDS011;206;48.782;9.252;2023-01-30T11:38:25;16.23;;;11.43;;
438;SDS011;206;48.782;9.252;2023-01-30T11:43:34;9.60;;;4.15;;
438;SDS011;206;48.782;9.252;2023-01-30T11:46:03;13.03;;;4.57;;
438;SDS011;206;48.782;9.252;2023-01-30T11:48:31;6.30;;;2.80;;
438;SDS011;206;48.782;9.252;2023-01-30T11:51:04;4.73;;;3.30;;
438;SDS011;206;48.782;9.252;2023-01-30T11:53:46;5.10;;;3.30;;
438;SDS011;206;48.782;9.252;2023-01-30T12:02:03;4.23;;;3.17;;
438;SDS011;206;48.782;9.252;2023-01-30T12:04:41;3.70;;;3.17;;
438;SDS011;206;48.782;9.252;2023-01-30T12:07:21;6.50;;;3.63;;
438;SDS011;206;48.782;9.252;2023-01-30T12:09:49;10.80;;;4.83;;
438;SDS011;206;48.782;9.252;2023-01-30T12:18:02;67.55;;;10.13;;
438;SDS011;206;48.782;9.252;2023-01-30T12:20:45;11.70;;;3.83;;
438;SDS011;206;48.782;9.252;2023-01-30T12:23:22;12.53;;;6.80;;
438;SDS011;206;48.782;9.252;2023-01-30T12:28:51;3.63;;;2.67;;
438;SDS011;206;48.782;9.252;2023-01-30T12:31:35;82.07;;;12.48;;
438;SDS011;206;48.782;9.252;2023-01-30T12:34:08;4.77;;;3.10;;
438;SDS011;206;48.782;9.252;2023-01-30T12:36:39;6.80;;;3.30;;
438;SDS011;206;48.782;9.252;2023-01-30T12:42:13;13.23;;;4.70;;
438;SDS011;206;48.782;9.252;2023-01-30T13:01:35;7.07;;;3.70;;
438;SDS011;206;48.782;9.252;2023-01-30T13:12:11;7.47;;;4.63;;
438;SDS011;206;48.782;9.252;2023-01-30T13:14:53;16.53;;;8.60;;
438;SDS011;206;48.782;9.252;2023-01-30T13:17:59;8.07;;;4.13;;
438;SDS011;206;48.782;9.252;2023-01-30T13:23:46;10.67;;;3.67;;
438;SDS011;206;48.782;9.252;2023-01-30T13:26:29;4.27;;;4.00;;
438;SDS011;206;48.782;9.252;2023-01-30T13:29:25;4.10;;;3.63;;
438;SDS011;206;48.782;9.252;2023-01-30T13:31:55;4.23;;;3.43;;
438;SDS011;206;48.782;9.252;2023-01-30T13:34:36;5.33;;;2.80;;
438;SDS011;206;48.782;9.252;2023-01-30T13:37:07;4.93;;;4.50;;
438;SDS011;206;48.782;9.252;2023-01-30T13:39:42;4.20;;;3.00;;
438;SDS011;206;48.782;9.252;2023-01-30T13:45:04;5.03;;;4.43;;
438;SDS011;206;48.782;9.252;2023-01-30T13:50:40;7.40;;;5.60;;
438;SDS011;206;48.782;9.252;2023-01-30T13:53:23;7.50;;;6.90;;
438;SDS011;206;48.782;9.252;2023-01-30T13:56:21;6.07;;;4.83;;
438;SDS011;206;48.782;9.252;2023-01-30T14:01:19;4.23;;;3.60;;
438;SDS011;206;48.782;9.252;2023-01-30T14:03:46;4.43;;;4.10;;
438;SDS011;206;48.782;9.252;2023-01-30T14:06:25;6.20;;;4.30;;
438;SDS011;206;48.782;9.252;2023-01-30T14:09:00;5.70;;;4.20;;
438;SDS011;206;48.782;9.252;2023-01-30T14:11:46;6.73;;;4.27;;
438;SDS011;206;48.782;9.252;2023-01-30T14:14:28;4.03;;;3.63;;
438;SDS011;206;48.782;9.252;2023-01-30T14:17:13;5.33;;;4.23;;
438;SDS011;206;48.782;9.252;2023-01-30T14:19:56;4.50;;;3.40;;
438;SDS011;206;48.782;9.252;2023-01-30T14:22:56;17.37;;;9.17;;
438;SDS011;206;48.782;9.252;2023-01-30T14:27:53;17.50;;;9.67;;
438;SDS011;206;48.782;9.252;2023-01-30T14:35:47;8.80;;;4.60;;
438;SDS011;206;48.782;9.252;2023-01-30T14:38:33;11.27;;;7.87;;
438;SDS011;206;48.782;9.252;2023-01-30T14:48:43;3.07;;;2.20;;
438;SDS011;206;48.782;9.252;2023-01-30T14:56:39;7.30;;;2.00;;
438;SDS011;206;48.782;9.252;2023-01-30T15:01:58;9.53;;;5.40;;
438;SDS011;206;48.782;9.252;2023-01-30T15:04:43;5.80;;;3.53;;
438;SDS011;206;48.782;9.252;2023-01-30T15:12:26;6.60;;;4.50;;
438;SDS011;206;48.782;9.252;2023-01-30T15:17:50;10.27;;;7.77;;
438;SDS011;206;48.782;9.252;2023-01-30T15:20:48;13.80;;;7.77;;
438;SDS011;206;48.782;9.252;2023-01-30T15:29:28;5.00;;;3.27;;
438;SDS011;206;48.782;9.252;2023-01-30T15:32:18;5.87;;;3.77;;
438;SDS011;206;48.782;9.252;2023-01-30T15:34:50;8.53;;;3.90;;
438;SDS011;206;48.782;9.252;2023-01-30T15:37:39;14.13;;;5.07;;
438;SDS011;206;48.782;9.252;2023-01-30T15:50:51;13.33;;;10.20;;
438;SDS011;206;48.782;9.252;2023-01-30T15:53:24;7.40;;;5.67;;
438;SDS011;206;48.782;9.252;2023-01-30T15:56:01;7.70;;;7.07;;
438;SDS011;206;48.782;9.252;2023-01-30T15:58:28;16.57;;;12.83;;
438;SDS011;206;48.782;9.252;2023-01-30T16:00:55;15.93;;;10.40;;
438;SDS011;206;48.782;9.252;2023-01-30T16:03:24;3.97;;;3.27;;
438;SDS011;206;48.782;9.252;2023-01-30T16:06:00;5.40;;;3.90;;
438;SDS011;206;48.782;9.252;2023-01-30T16:08:30;4.50;;;3.17;;
438;SDS011;206;48.782;9.252;2023-01-30T16:10:57;3.87;;;3.63;;
438;SDS011;206;48.782;9.252;2023-01-30T16:13:24;10.40;;;9.20;;
438;SDS011;206;48.782;9.252;2023-01-30T16:16:02;5.80;;;5.17;;
438;SDS011;206;48.782;9.252;2023-01-30T16:21:07;6.80;;;4.97;;
438;SDS011;206;48.782;9.252;2023-01-30T16:26:42;7.10;;;5.27;;
438;SDS011;206;48.782;9.252;2023-01-30T16:29:13;5.27;;;4.43;;
438;SDS011;206;48.782;9.252;2023-01-30T16:31:45;6.53;;;4.47;;
438;SDS011;206;48.782;9.252;2023-01-30T16:36:53;4.90;;;4.13;;
438;SDS011;206;48.782;9.252;2023-01-30T16:39:30;32.07;;;18.77;;
438;SDS011;206;48.782;9.252;2023-01-30T16:41:58;17.87;;;9.47;;
438;SDS011;206;48.782;9.252;2023-01-30T16:44:26;32.70;;;18.40;;
438;SDS011;206;48.782;9.252;2023-01-30T16:49:23;24.23;;;12.60;;
438;SDS011;206;48.782;9.252;2023-01-30T16:52:00;39.80;;;21.77;;
438;SDS011;206;48.782;9.252;2023-01-30T16:54:27;13.93;;;7.13;;
438;SDS011;206;48.782;9.252;2023-01-30T16:56:55;20.70;;;11.20;;
438;SDS011;206;48.782;9.252;2023-01-30T16:59:30;31.53;;;20.23;;
438;SDS011;206;48.782;9.252;2023-01-30T17:02:00;28.17;;;16.90;;
438;SDS011;206;48.782;9.252;2023-01-30T17:04:29;14.63;;;11.30;;
438;SDS011;206;48.782;9.252;2023-01-30T17:06:59;11.97;;;4.40;;
438;SDS011;206;48.782;9.252;2023-01-30T17:09:41;9.20;;;6.03;;
438;SDS011;206;48.782;9.252;2023-01-30T17:12:55;11.90;;;5.77;;
438;SDS011;206;48.782;9.252;2023-01-30T17:17:46;6.73;;;5.17;;
438;SDS011;206;48.782;9.252;2023-01-30T17:20:12;7.70;;;6.33;;
438;SDS011;206;48.782;9.252;2023-01-30T17:22:40;8.97;;;6.20;;
438;SDS011;206;48.782;9.252;2023-01-30T17:25:29;8.50;;;5.70;;
438;SDS011;206;48.782;9.252;2023-01-30T17:27:57;8.63;;;5.17;;
438;SDS011;206;48.782;9.252;2023-01-30T17:30:23;8.40;;;5.10;;
438;SDS011;206;48.782;9.252;2023-01-30T17:32:48;7.63;;;6.00;;
438;SDS011;206;48.782;9.252;2023-01-30T17:35:14;5.23;;;3.90;;
438;SDS011;206;48.782;9.252;2023-01-30T17:37:41;12.53;;;5.47;;
438;SDS011;206;48.782;9.252;2023-01-30T17:40:14;7.30;;;5.80;;
438;SDS011;206;48.782;9.252;2023-01-30T17:42:41;9.60;;;5.60;;
438;SDS011;206;48.782;9.252;2023-01-30T17:45:07;5.93;;;5.20;;
438;SDS011;206;48.782;9.252;2023-01-30T17:47:33;5.80;;;5.20;;
438;SDS011;206;48.782;9.252;2023-01-30T17:49:59;7.63;;;4.70;;
438;SDS011;206;48.782;9.252;2023-01-30T17:52:25;7.97;;;5.90;;
438;SDS011;206;48.782;9.252;2023-01-30T17:54:50;9.43;;;6.37;;
438;SDS011;206;48.782;9.252;2023-01-30T17:57:16;6.60;;;4.30;;
438;SDS011;206;48.782;9.252;2023-01-30T17:59:42;4.70;;;4.07;;
438;SDS011;206;48.782;9.252;2023-01-30T18:02:10;7.93;;;5.17;;
438;SDS011;206;48.782;9.252;2023-01-30T18:04:36;7.70;;;5.90;;
438;SDS011;206;48.782;9.252;2023-01-30T18:07:04;14.03;;;4.63;;
438;SDS011;206;48.782;9.252;2023-01-30T18:09:33;4.77;;;4.17;;
438;SDS011;206;48.782;9.252;2023-01-30T18:11:59;7.23;;;5.53;;
438;SDS011;206;48.782;9.252;2023-01-30T18:14:25;11.37;;;7.70;;
438;SDS011;206;48.782;9.252;2023-01-30T18:16:51;8.33;;;6.53;;
438;SDS011;206;48.782;9.252;2023-01-30T18:19:17;16.52;;;12.68;;
438;SDS011;206;48.782;9.252;2023-01-30T18:21:47;16.10;;;8.93;;
438;SDS011;206;48.782;9.252;2023-01-30T18:24:13;17.20;;;9.23;;
438;SDS011;206;48.782;9.252;2023-01-30T18:26:39;8.60;;;5.40;;
438;SDS011;206;48.782;9.252;2023-01-30T18:29:05;9.67;;;5.60;;
438;SDS011;206;48.782;9.252;2023-01-30T18:31:33;10.33;;;5.73;;
438;SDS011;206;48.782;9.252;2023-01-30T18:33:59;11.77;;;5.63;;
438;SDS011;206;48.782;9.252;2023-01-30T18:36:25;10.37;;;5.63;;
438;SDS011;206;48.782;9.252;2023-01-30T18:38:50;14.30;;;6.73;;
438;SDS011;206;48.782;9.252;2023-01-30T18:41:18;16.20;;;6.70;;
438;SDS011;206;48.782;9.252;2023-01-30T18:43:45;10.93;;;7.40;;
438;SDS011;206;48.782;9.252;2023-01-30T18:46:13;12.43;;;6.20;;
438;SDS011;206;48.782;9.252;2023-01-30T18:48:40;14.43;;;6.80;;
438;SDS011;206;48.782;9.252;2023-01-30T18:51:14;7.47;;;6.50;;
438;SDS011;206;48.782;9.252;2023-01-30T18:53:43;9.80;;;6.20;;
438;SDS011;206;48.782;9.252;2023-01-30T18:56:10;7.73;;;4.60;;
438;SDS011;206;48.782;9.252;2023-01-30T18:58:37;8.23;;;5.40;;